createdAt,value
2023-04-08T00:00:20.814Z,395.00
2023-04-08T00:01:20.835Z,395.00
2023-04-08T00:02:20.946Z,396.00
2023-04-08T00:03:20.971Z,394.00
2023-04-08T00:04:20.929Z,395.00
2023-04-08T00:05:20.858Z,395.00
2023-04-08T00:06:20.811Z,397.00
2023-04-08T00:07:20.831Z,399.00
2023-04-08T00:08:20.801Z,401.00
2023-04-08T00:09:20.842Z,404.00
2023-04-08T00:10:20.839Z,407.00
2023-04-08T00:11:20.797Z,405.00
2023-04-08T00:12:20.787Z,402.00
2023-04-08T00:13:20.809Z,400.00
2023-04-08T00:14:20.817Z,399.00
2023-04-08T00:15:20.887Z,400.00
2023-04-08T00:16:20.874Z,400.00
2023-04-08T00:17:20.819Z,399.00
2023-04-08T00:18:20.837Z,403.00
2023-04-08T00:19:20.949Z,404.00
2023-04-08T00:20:20.859Z,404.00
2023-04-08T00:21:20.945Z,402.00
2023-04-08T00:22:20.930Z,403.00
2023-04-08T00:23:20.844Z,404.00
2023-04-08T00:24:20.873Z,404.00
2023-04-08T00:25:21.914Z,401.00
2023-04-08T00:26:21.042Z,400.00
2023-04-08T00:27:21.130Z,400.00
2023-04-08T00:28:21.140Z,399.00
2023-04-08T00:29:21.193Z,399.00
2023-04-08T00:30:21.223Z,400.00
2023-04-08T00:31:21.483Z,400.00
2023-04-08T00:32:21.323Z,399.00
2023-04-08T00:33:21.346Z,399.00
2023-04-08T00:34:21.400Z,399.00
2023-04-08T00:35:21.479Z,397.00
2023-04-08T00:36:21.503Z,397.00
2023-04-08T00:37:21.546Z,398.00
2023-04-08T00:38:21.576Z,397.00
2023-04-08T00:39:21.644Z,397.00
2023-04-08T00:40:21.694Z,399.00
2023-04-08T00:41:21.739Z,401.00
2023-04-08T00:42:21.751Z,401.00
2023-04-08T00:43:21.835Z,402.00
2023-04-08T00:44:21.840Z,402.00
2023-04-08T00:45:21.913Z,403.00
2023-04-08T00:46:21.965Z,403.00
2023-04-08T00:47:22.001Z,401.00
2023-04-08T00:48:21.997Z,403.00
2023-04-08T00:49:22.078Z,402.00
2023-04-08T00:50:22.115Z,403.00
2023-04-08T00:51:22.133Z,403.00
2023-04-08T00:52:22.223Z,401.00
2023-04-08T00:53:23.327Z,399.00
2023-04-08T00:54:22.389Z,400.00
2023-04-08T00:55:22.390Z,400.00
2023-04-08T00:56:22.457Z,401.00
2023-04-08T00:57:22.497Z,399.00
2023-04-08T00:58:22.544Z,399.00
2023-04-08T00:59:22.581Z,400.00
2023-04-08T01:00:22.680Z,400.00
2023-04-08T01:01:22.716Z,401.00
2023-04-08T01:02:23.015Z,399.00
2023-04-08T01:03:23.079Z,400.00
2023-04-08T01:04:22.928Z,403.00
2023-04-08T01:05:22.862Z,404.00
2023-04-08T01:06:22.906Z,403.00
2023-04-08T01:07:23.006Z,402.00
2023-04-08T01:08:23.023Z,403.00
2023-04-08T01:09:23.073Z,402.00
2023-04-08T01:10:23.102Z,401.00
2023-04-08T01:11:23.131Z,402.00
2023-04-08T01:12:23.208Z,401.00
2023-04-08T01:13:23.229Z,399.00
2023-04-08T01:14:23.286Z,399.00
2023-04-08T01:15:23.345Z,400.00
2023-04-08T01:16:23.525Z,400.00
2023-04-08T01:17:23.431Z,403.00
2023-04-08T01:18:23.487Z,406.00
2023-04-08T01:19:23.510Z,409.00
2023-04-08T01:20:23.585Z,408.00
2023-04-08T01:21:23.618Z,405.00
2023-04-08T01:22:23.640Z,404.00
2023-04-08T01:23:23.711Z,403.00
2023-04-08T01:24:23.752Z,403.00
2023-04-08T01:25:23.798Z,403.00
2023-04-08T01:26:23.841Z,402.00
2023-04-08T01:27:23.881Z,401.00
2023-04-08T01:28:23.987Z,402.00
2023-04-08T01:29:23.986Z,400.00
2023-04-08T01:30:24.038Z,399.00
2023-04-08T01:31:24.166Z,398.00
2023-04-08T01:32:24.070Z,398.00
2023-04-08T01:33:24.049Z,396.00
2023-04-08T01:34:24.077Z,396.00
2023-04-08T01:35:24.104Z,396.00
2023-04-08T01:36:24.060Z,396.00
2023-04-08T01:37:24.092Z,398.00
2023-04-08T01:38:24.085Z,397.00
2023-04-08T01:39:24.125Z,397.00
2023-04-08T01:40:24.174Z,398.00
2023-04-08T01:41:24.142Z,400.00
2023-04-08T01:42:24.175Z,400.00
2023-04-08T01:43:24.219Z,400.00
2023-04-08T01:44:24.265Z,401.00
2023-04-08T01:45:24.324Z,402.00
2023-04-08T01:46:24.423Z,401.00
2023-04-08T01:47:24.445Z,400.00
2023-04-08T01:48:24.468Z,399.00
2023-04-08T01:49:24.510Z,399.00
2023-04-08T01:50:24.603Z,401.00
2023-04-08T01:51:24.620Z,402.00
2023-04-08T01:52:24.700Z,401.00
2023-04-08T01:53:24.747Z,400.00
2023-04-08T01:54:24.809Z,399.00
2023-04-08T01:55:24.847Z,398.00
2023-04-08T01:56:24.910Z,397.00
2023-04-08T01:57:24.982Z,398.00
2023-04-08T01:58:25.024Z,400.00
2023-04-08T01:59:25.069Z,402.00
2023-04-08T02:00:25.128Z,404.00
2023-04-08T02:01:25.235Z,404.00
2023-04-08T02:02:25.309Z,405.00
2023-04-08T02:03:25.419Z,405.00
2023-04-08T02:04:25.396Z,401.00
2023-04-08T02:05:25.374Z,403.00
2023-04-08T02:06:25.433Z,403.00
2023-04-08T02:07:25.471Z,402.00
2023-04-08T02:08:25.506Z,404.00
2023-04-08T02:09:25.494Z,407.00
2023-04-08T02:10:25.512Z,408.00
2023-04-08T02:11:25.506Z,407.00
2023-04-08T02:12:25.526Z,406.00
2023-04-08T02:13:25.548Z,407.00
2023-04-08T02:14:25.518Z,406.00
2023-04-08T02:15:25.536Z,405.00
2023-04-08T02:16:25.620Z,403.00
2023-04-08T02:17:25.562Z,402.00
2023-04-08T02:18:25.550Z,402.00
2023-04-08T02:19:25.586Z,402.00
2023-04-08T02:20:25.570Z,404.00
2023-04-08T02:21:25.630Z,403.00
2023-04-08T02:22:25.675Z,403.00
2023-04-08T02:23:25.719Z,401.00
2023-04-08T02:24:25.809Z,401.00
2023-04-08T02:25:25.833Z,402.00
2023-04-08T02:26:25.832Z,400.00
2023-04-08T02:27:25.845Z,398.00
2023-04-08T02:28:25.858Z,399.00
2023-04-08T02:29:25.871Z,399.00
2023-04-08T02:30:25.886Z,399.00
2023-04-08T02:31:25.911Z,400.00
2023-04-08T02:32:25.911Z,400.00
2023-04-08T02:33:25.898Z,400.00
2023-04-08T02:34:25.924Z,400.00
2023-04-08T02:35:25.976Z,401.00
2023-04-08T02:36:25.929Z,402.00
2023-04-08T02:37:25.961Z,403.00
2023-04-08T02:38:25.933Z,402.00
2023-04-08T02:39:25.951Z,402.00
2023-04-08T02:40:25.953Z,401.00
2023-04-08T02:41:25.982Z,397.00
2023-04-08T02:42:25.973Z,398.00
2023-04-08T02:43:25.959Z,398.00
2023-04-08T02:44:25.975Z,397.00
2023-04-08T02:45:26.014Z,398.00
2023-04-08T02:46:26.029Z,399.00
2023-04-08T02:47:26.003Z,399.00
2023-04-08T02:48:25.993Z,399.00
2023-04-08T02:49:25.995Z,400.00
2023-04-08T02:50:26.024Z,402.00
2023-04-08T02:51:26.042Z,402.00
2023-04-08T02:52:26.028Z,403.00
2023-04-08T02:53:26.035Z,405.00
2023-04-08T02:54:26.085Z,407.00
2023-04-08T02:55:26.151Z,407.00
2023-04-08T02:56:26.183Z,406.00
2023-04-08T02:57:26.227Z,406.00
2023-04-08T02:58:26.325Z,407.00
2023-04-08T02:59:26.350Z,405.00
2023-04-08T03:00:26.403Z,404.00
2023-04-08T03:01:26.462Z,403.00
2023-04-08T03:02:26.570Z,404.00
2023-04-08T03:03:26.600Z,404.00
2023-04-08T03:04:26.601Z,406.00
2023-04-08T03:05:26.621Z,408.00
2023-04-08T03:06:26.630Z,411.00
2023-04-08T03:07:26.687Z,411.00
2023-04-08T03:08:26.742Z,409.00
2023-04-08T03:09:26.798Z,409.00
2023-04-08T03:10:26.877Z,408.00
2023-04-08T03:11:26.911Z,406.00
2023-04-08T03:12:26.959Z,406.00
2023-04-08T03:13:26.997Z,407.00
2023-04-08T03:14:27.095Z,405.00
2023-04-08T03:15:27.143Z,407.00
2023-04-08T03:16:27.228Z,408.00
2023-04-08T03:17:27.269Z,409.00
2023-04-08T03:18:27.344Z,408.00
2023-04-08T03:19:27.338Z,408.00
2023-04-08T03:20:27.400Z,408.00
2023-04-08T03:21:27.383Z,406.00
2023-04-08T03:22:27.390Z,407.00
2023-04-08T03:23:27.417Z,408.00
2023-04-08T03:24:27.408Z,411.00
2023-04-08T03:25:27.641Z,413.00
2023-04-08T03:26:27.448Z,411.00
2023-04-08T03:27:27.471Z,411.00
2023-04-08T03:28:27.480Z,410.00
2023-04-08T03:29:27.467Z,408.00
2023-04-08T03:30:27.486Z,406.00
2023-04-08T03:31:27.506Z,405.00
2023-04-08T03:32:27.507Z,401.00
2023-04-08T03:33:27.505Z,402.00
2023-04-08T03:34:27.541Z,402.00
2023-04-08T03:35:27.602Z,404.00
2023-04-08T03:36:27.558Z,404.00
2023-04-08T03:37:27.616Z,403.00
2023-04-08T03:38:27.787Z,399.00
2023-04-08T03:39:27.732Z,398.00
2023-04-08T03:40:27.752Z,398.00
2023-04-08T03:41:27.755Z,398.00
2023-04-08T03:42:27.772Z,398.00
2023-04-08T03:43:27.780Z,399.00
2023-04-08T03:44:27.806Z,397.00
2023-04-08T03:45:27.808Z,400.00
2023-04-08T03:46:27.918Z,401.00
2023-04-08T03:47:27.896Z,401.00
2023-04-08T03:48:27.834Z,404.00
2023-04-08T03:49:27.863Z,404.00
2023-04-08T03:50:27.855Z,404.00
2023-04-08T03:51:27.888Z,401.00
2023-04-08T03:52:27.881Z,398.00
2023-04-08T03:53:27.882Z,396.00
2023-04-08T03:54:27.915Z,396.00
2023-04-08T03:55:27.973Z,397.00
2023-04-08T03:56:27.994Z,396.00
2023-04-08T03:57:28.028Z,395.00
2023-04-08T03:58:28.100Z,396.00
2023-04-08T03:59:28.194Z,398.00
2023-04-08T04:00:28.231Z,397.00
2023-04-08T04:01:28.464Z,398.00
2023-04-08T04:02:28.565Z,397.00
2023-04-08T04:03:28.556Z,398.00
2023-04-08T04:04:28.594Z,399.00
2023-04-08T04:05:28.494Z,400.00
2023-04-08T04:06:28.538Z,403.00
2023-04-08T04:07:28.615Z,404.00
2023-04-08T04:08:28.655Z,404.00
2023-04-08T04:09:28.823Z,405.00
2023-04-08T04:10:28.791Z,405.00
2023-04-08T04:11:28.847Z,404.00
2023-04-08T04:12:28.895Z,403.00
2023-04-08T04:13:28.935Z,401.00
2023-04-08T04:14:28.936Z,402.00
2023-04-08T04:15:29.011Z,401.00
2023-04-08T04:16:31.524Z,401.00
2023-04-08T04:17:29.014Z,401.00
2023-04-08T04:18:29.018Z,401.00
2023-04-08T04:19:28.951Z,400.00
2023-04-08T04:20:28.947Z,399.00
2023-04-08T04:21:28.934Z,399.00
2023-04-08T04:22:28.949Z,399.00
2023-04-08T04:23:28.933Z,399.00
2023-04-08T04:24:28.922Z,400.00
2023-04-08T04:25:29.008Z,400.00
2023-04-08T04:26:28.913Z,401.00
2023-04-08T04:27:28.886Z,401.00
2023-04-08T04:28:28.888Z,400.00
2023-04-08T04:29:28.874Z,399.00
2023-04-08T04:30:28.872Z,398.00
2023-04-08T04:31:28.914Z,398.00
2023-04-08T04:32:28.925Z,398.00
2023-04-08T04:33:28.858Z,400.00
2023-04-08T04:34:28.816Z,400.00
2023-04-08T04:35:28.870Z,399.00
2023-04-08T04:36:28.814Z,398.00
2023-04-08T04:37:28.832Z,400.00
2023-04-08T04:38:28.815Z,398.00
2023-04-08T04:39:28.797Z,398.00
2023-04-08T04:40:28.838Z,398.00
2023-04-08T04:41:28.822Z,397.00
2023-04-08T04:42:28.793Z,397.00
2023-04-08T04:43:28.799Z,398.00
2023-04-08T04:44:28.788Z,398.00
2023-04-08T04:45:28.779Z,399.00
2023-04-08T04:46:28.885Z,397.00
2023-04-08T04:47:28.823Z,397.00
2023-04-08T04:48:28.751Z,396.00
2023-04-08T04:49:28.749Z,398.00
2023-04-08T04:50:28.739Z,399.00
2023-04-08T04:51:28.752Z,398.00
2023-04-08T04:52:28.718Z,398.00
2023-04-08T04:53:28.731Z,399.00
2023-04-08T04:54:28.709Z,396.00
2023-04-08T04:55:28.683Z,397.00
2023-04-08T04:56:28.672Z,397.00
2023-04-08T04:57:28.715Z,395.00
2023-04-08T04:58:28.710Z,395.00
2023-04-08T04:59:28.675Z,398.00
2023-04-08T05:00:28.741Z,399.00
2023-04-08T05:01:28.723Z,398.00
2023-04-08T05:02:28.940Z,399.00
2023-04-08T05:03:28.718Z,400.00
2023-04-08T05:04:28.723Z,399.00
2023-04-08T05:05:28.891Z,400.00
2023-04-08T05:06:28.835Z,400.00
2023-04-08T05:07:28.913Z,398.00
2023-04-08T05:08:28.966Z,397.00
2023-04-08T05:09:29.012Z,396.00
2023-04-08T05:10:29.105Z,398.00
2023-04-08T05:11:29.127Z,400.00
2023-04-08T05:12:29.186Z,399.00
2023-04-08T05:13:29.258Z,402.00
2023-04-08T05:14:29.313Z,401.00
2023-04-08T05:15:29.401Z,400.00
2023-04-08T05:16:29.570Z,401.00
2023-04-08T05:17:29.532Z,402.00
2023-04-08T05:18:29.559Z,402.00
2023-04-08T05:19:29.614Z,401.00
2023-04-08T05:20:29.713Z,403.00
2023-04-08T05:21:29.740Z,406.00
2023-04-08T05:22:29.827Z,409.00
2023-04-08T05:23:29.874Z,409.00
2023-04-08T05:24:29.931Z,408.00
2023-04-08T05:25:29.987Z,407.00
2023-04-08T05:26:30.060Z,408.00
2023-04-08T05:27:30.103Z,409.00
2023-04-08T05:28:30.142Z,409.00
2023-04-08T05:29:30.248Z,409.00
2023-04-08T05:30:30.291Z,408.00
2023-04-08T05:31:30.365Z,406.00
2023-04-08T05:32:30.426Z,406.00
2023-04-08T05:33:30.443Z,407.00
2023-04-08T05:34:30.499Z,407.00
2023-04-08T05:35:30.576Z,407.00
2023-04-08T05:36:30.649Z,407.00
2023-04-08T05:37:30.707Z,408.00
2023-04-08T05:38:30.738Z,409.00
2023-04-08T05:39:30.763Z,409.00
2023-04-08T05:40:30.859Z,411.00
2023-04-08T05:41:30.886Z,408.00
2023-04-08T05:42:30.948Z,406.00
2023-04-08T05:43:31.025Z,407.00
2023-04-08T05:44:31.087Z,406.00
2023-04-08T05:45:31.216Z,406.00
2023-04-08T05:46:31.219Z,405.00
2023-04-08T05:47:31.311Z,407.00
2023-04-08T05:48:31.282Z,408.00
2023-04-08T05:49:31.366Z,409.00
2023-04-08T05:50:31.426Z,409.00
2023-04-08T05:51:31.467Z,408.00
2023-04-08T05:52:31.538Z,408.00
2023-04-08T05:53:31.586Z,407.00
2023-04-08T05:54:31.611Z,406.00
2023-04-08T05:55:31.693Z,404.00
2023-04-08T05:56:31.762Z,403.00
2023-04-08T05:57:31.807Z,402.00
2023-04-08T05:58:31.880Z,402.00
2023-04-08T05:59:31.915Z,402.00
2023-04-08T06:00:32.034Z,402.00
2023-04-08T06:01:32.074Z,403.00
2023-04-08T06:02:32.278Z,402.00
2023-04-08T06:03:32.321Z,403.00
2023-04-08T06:04:32.329Z,405.00
2023-04-08T06:05:32.302Z,406.00
2023-04-08T06:06:32.410Z,406.00
2023-04-08T06:07:32.394Z,406.00
2023-04-08T06:08:32.448Z,408.00
2023-04-08T06:09:32.535Z,409.00
2023-04-08T06:10:32.600Z,410.00
2023-04-08T06:11:32.649Z,409.00
2023-04-08T06:12:32.700Z,408.00
2023-04-08T06:13:32.787Z,408.00
2023-04-08T06:14:32.834Z,409.00
2023-04-08T06:15:32.891Z,410.00
2023-04-08T06:16:33.000Z,412.00
2023-04-08T06:17:33.012Z,412.00
2023-04-08T06:18:33.079Z,411.00
2023-04-08T06:19:33.155Z,411.00
2023-04-08T06:20:33.189Z,411.00
2023-04-08T06:21:33.211Z,411.00
2023-04-08T06:22:33.276Z,412.00
2023-04-08T06:23:33.279Z,411.00
2023-04-08T06:24:33.274Z,411.00
2023-04-08T06:25:33.284Z,411.00
2023-04-08T06:26:33.323Z,411.00
2023-04-08T06:27:33.343Z,412.00
2023-04-08T06:28:33.346Z,412.00
2023-04-08T06:29:33.343Z,412.00
2023-04-08T06:30:33.349Z,414.00
2023-04-08T06:31:33.411Z,414.00
2023-04-08T06:32:33.428Z,412.00
2023-04-08T06:33:33.416Z,412.00
2023-04-08T06:34:33.421Z,411.00
2023-04-08T06:35:33.460Z,410.00
2023-04-08T06:36:33.454Z,411.00
2023-04-08T06:37:33.439Z,409.00
2023-04-08T06:38:33.450Z,408.00
2023-04-08T06:39:33.449Z,410.00
2023-04-08T06:40:33.478Z,410.00
2023-04-08T06:41:33.514Z,411.00
2023-04-08T06:42:33.498Z,412.00
2023-04-08T06:43:33.513Z,411.00
2023-04-08T06:44:33.485Z,411.00
2023-04-08T06:45:33.525Z,412.00
2023-04-08T06:46:33.509Z,411.00
2023-04-08T06:47:33.598Z,413.00
2023-04-08T06:48:33.543Z,413.00
2023-04-08T06:49:33.561Z,413.00
2023-04-08T06:50:33.586Z,413.00
2023-04-08T06:51:33.572Z,413.00
2023-04-08T06:52:33.595Z,411.00
2023-04-08T06:53:33.563Z,411.00
2023-04-08T06:54:33.650Z,411.00
2023-04-08T06:55:33.686Z,410.00
2023-04-08T06:56:33.749Z,409.00
2023-04-08T06:57:33.795Z,408.00
2023-04-08T06:58:33.836Z,408.00
2023-04-08T06:59:33.929Z,409.00
2023-04-08T07:00:33.964Z,409.00
2023-04-08T07:01:34.096Z,411.00
2023-04-08T07:02:34.143Z,411.00
2023-04-08T07:03:34.210Z,408.00
2023-04-08T07:04:34.163Z,406.00
2023-04-08T07:05:34.228Z,406.00
2023-04-08T07:06:34.260Z,407.00
2023-04-08T07:07:34.277Z,407.00
2023-04-08T07:08:34.284Z,406.00
2023-04-08T07:09:34.315Z,405.00
2023-04-08T07:10:34.316Z,405.00
2023-04-08T07:11:34.312Z,406.00
2023-04-08T07:12:34.339Z,406.00
2023-04-08T07:13:34.351Z,407.00
2023-04-08T07:14:34.329Z,408.00
2023-04-08T07:15:34.373Z,408.00
2023-04-08T07:16:34.396Z,406.00
2023-04-08T07:17:34.407Z,406.00
2023-04-08T07:18:34.388Z,405.00
2023-04-08T07:19:34.414Z,406.00
2023-04-08T07:20:34.423Z,406.00
2023-04-08T07:21:34.410Z,406.00
2023-04-08T07:22:34.452Z,406.00
2023-04-08T07:23:34.421Z,406.00
2023-04-08T07:24:34.457Z,409.00
2023-04-08T07:25:34.475Z,409.00
2023-04-08T07:26:34.473Z,409.00
2023-04-08T07:27:34.521Z,409.00
2023-04-08T07:28:34.582Z,409.00
2023-04-08T07:29:34.603Z,408.00
2023-04-08T07:30:34.718Z,409.00
2023-04-08T07:31:34.711Z,409.00
2023-04-08T07:32:34.799Z,407.00
2023-04-08T07:33:34.852Z,407.00
2023-04-08T07:34:34.877Z,409.00
2023-04-08T07:35:35.021Z,405.00
2023-04-08T07:36:34.977Z,406.00
2023-04-08T07:37:35.071Z,407.00
2023-04-08T07:38:35.118Z,407.00
2023-04-08T07:39:35.157Z,408.00
2023-04-08T07:40:35.739Z,407.00
2023-04-08T07:41:35.249Z,407.00
2023-04-08T07:42:35.311Z,405.00
2023-04-08T07:43:35.348Z,406.00
2023-04-08T07:44:35.408Z,406.00
2023-04-08T07:45:35.423Z,408.00
2023-04-08T07:46:35.548Z,404.00
2023-04-08T07:47:35.556Z,405.00
2023-04-08T07:48:35.593Z,405.00
2023-04-08T07:49:35.655Z,405.00
2023-04-08T07:50:35.671Z,404.00
2023-04-08T07:51:36.707Z,405.00
2023-04-08T07:52:35.688Z,403.00
2023-04-08T07:53:35.686Z,403.00
2023-04-08T07:54:35.677Z,404.00
2023-04-08T07:55:35.680Z,404.00
2023-04-08T07:56:35.673Z,403.00
2023-04-08T07:57:35.649Z,403.00
2023-04-08T07:58:35.654Z,402.00
2023-04-08T07:59:35.616Z,402.00
2023-04-08T08:00:35.625Z,403.00
2023-04-08T08:01:35.660Z,403.00
2023-04-08T08:03:35.692Z,403.00
2023-04-08T08:05:35.646Z,406.00
2023-04-08T08:06:35.698Z,405.00
2023-04-08T08:07:35.664Z,405.00
2023-04-08T08:08:35.691Z,405.00
2023-04-08T08:09:35.705Z,404.00
2023-04-08T08:10:35.666Z,402.00
2023-04-08T08:11:35.677Z,402.00
2023-04-08T08:12:35.704Z,402.00
2023-04-08T08:13:35.702Z,398.00
2023-04-08T08:14:35.683Z,398.00
2023-04-08T08:15:35.747Z,397.00
2023-04-08T08:16:35.912Z,397.00
2023-04-08T08:17:35.687Z,398.00
2023-04-08T08:18:35.710Z,398.00
2023-04-08T08:19:35.694Z,400.00
2023-04-08T08:20:35.660Z,402.00
2023-04-08T08:21:35.701Z,402.00
2023-04-08T08:22:41.857Z,398.00
2023-04-08T08:23:36.677Z,397.00
2023-04-08T08:24:35.699Z,398.00
2023-04-08T08:25:35.720Z,399.00
2023-04-08T08:26:35.642Z,400.00
2023-04-08T08:27:35.673Z,398.00
2023-04-08T08:28:35.657Z,401.00
2023-04-08T08:29:35.656Z,403.00
2023-04-08T08:30:35.642Z,402.00
2023-04-08T08:31:35.636Z,404.00
2023-04-08T08:32:35.627Z,408.00
2023-04-08T08:33:35.745Z,404.00
2023-04-08T08:34:35.679Z,402.00
2023-04-08T08:35:35.733Z,402.00
2023-04-08T08:36:35.794Z,400.00
2023-04-08T08:37:35.811Z,401.00
2023-04-08T08:38:35.869Z,403.00
2023-04-08T08:39:35.897Z,403.00
2023-04-08T08:40:35.933Z,401.00
2023-04-08T08:41:36.756Z,403.00
2023-04-08T08:42:36.019Z,404.00
2023-04-08T08:43:36.017Z,403.00
2023-04-08T08:44:36.013Z,402.00
2023-04-08T08:45:36.022Z,402.00
2023-04-08T08:46:36.139Z,404.00
2023-04-08T08:47:36.256Z,403.00
2023-04-08T08:48:36.164Z,403.00
2023-04-08T08:49:36.223Z,403.00
2023-04-08T08:50:36.257Z,403.00
2023-04-08T08:51:36.287Z,402.00
2023-04-08T08:52:36.314Z,397.00
2023-04-08T08:53:36.290Z,397.00
2023-04-08T08:54:36.304Z,395.00
2023-04-08T08:55:59.987Z,398.00
2023-04-08T08:56:37.309Z,400.00
2023-04-08T08:57:36.296Z,400.00
2023-04-08T08:58:36.313Z,398.00
2023-04-08T08:59:36.303Z,398.00
2023-04-08T09:00:36.312Z,398.00
2023-04-08T09:01:36.433Z,400.00
2023-04-08T09:02:36.324Z,399.00
2023-04-08T09:03:36.399Z,399.00
2023-04-08T09:04:36.452Z,400.00
2023-04-08T09:05:36.333Z,401.00
2023-04-08T09:06:36.222Z,403.00
2023-04-08T09:07:36.218Z,403.00
2023-04-08T09:08:36.213Z,403.00
2023-04-08T09:09:36.176Z,400.00
2023-04-08T09:10:36.222Z,401.00
2023-04-08T09:11:36.191Z,400.00
2023-04-08T09:12:36.231Z,399.00
2023-04-08T09:13:36.242Z,400.00
2023-04-08T09:14:36.295Z,402.00
2023-04-08T09:15:36.318Z,403.00
2023-04-08T09:16:36.341Z,406.00
2023-04-08T09:17:36.376Z,407.00
2023-04-08T09:18:36.427Z,406.00
2023-04-08T09:19:36.446Z,405.00
2023-04-08T09:20:36.452Z,405.00
2023-04-08T09:21:36.467Z,406.00
2023-04-08T09:22:36.498Z,403.00
2023-04-08T09:23:36.549Z,402.00
2023-04-08T09:24:36.593Z,402.00
2023-04-08T09:25:36.596Z,401.00
2023-04-08T09:26:36.636Z,401.00
2023-04-08T09:27:36.671Z,397.00
2023-04-08T09:28:36.698Z,399.00
2023-04-08T09:29:39.610Z,399.00
2023-04-08T09:30:36.730Z,399.00
2023-04-08T09:31:36.750Z,400.00
2023-04-08T09:32:36.722Z,400.00
2023-04-08T09:33:36.700Z,399.00
2023-04-08T09:34:36.773Z,399.00
2023-04-08T09:35:36.741Z,398.00
2023-04-08T09:36:36.700Z,398.00
2023-04-08T09:37:36.673Z,398.00
2023-04-08T09:38:36.661Z,399.00
2023-04-08T09:39:36.675Z,397.00
2023-04-08T09:40:36.660Z,396.00
2023-04-08T09:41:36.644Z,397.00
2023-04-08T09:42:36.639Z,399.00
2023-04-08T09:43:36.618Z,402.00
2023-04-08T09:44:36.641Z,403.00
2023-04-08T09:45:36.669Z,401.00
2023-04-08T09:46:36.621Z,403.00
2023-04-08T09:47:36.631Z,402.00
2023-04-08T09:48:36.584Z,401.00
2023-04-08T09:49:36.587Z,401.00
2023-04-08T09:50:36.602Z,400.00
2023-04-08T09:51:36.586Z,402.00
2023-04-08T09:52:36.550Z,403.00
2023-04-08T09:53:36.581Z,401.00
2023-04-08T09:54:36.574Z,400.00
2023-04-08T09:55:36.569Z,399.00
2023-04-08T09:56:36.550Z,400.00
2023-04-08T09:57:36.537Z,401.00
2023-04-08T09:58:36.560Z,404.00
2023-04-08T09:59:36.558Z,402.00
2023-04-08T10:00:36.507Z,401.00
2023-04-08T10:01:36.731Z,399.00
2023-04-08T10:02:36.657Z,398.00
2023-04-08T10:03:36.654Z,400.00
2023-04-08T10:04:36.504Z,400.00
2023-04-08T10:05:36.476Z,401.00
2023-04-08T10:06:36.486Z,401.00
2023-04-08T10:07:36.442Z,401.00
2023-04-08T10:08:36.424Z,400.00
2023-04-08T10:09:36.436Z,397.00
2023-04-08T10:10:36.431Z,397.00
2023-04-08T10:11:36.438Z,396.00
2023-04-08T10:12:36.440Z,400.00
2023-04-08T10:13:36.413Z,400.00
2023-04-08T10:14:36.416Z,401.00
2023-04-08T10:15:36.420Z,401.00
2023-04-08T10:16:36.439Z,400.00
2023-04-08T10:17:36.403Z,400.00
2023-04-08T10:18:36.382Z,400.00
2023-04-08T10:19:36.356Z,400.00
2023-04-08T10:20:36.485Z,401.00
2023-04-08T10:21:36.390Z,399.00
2023-04-08T10:22:36.343Z,402.00
2023-04-08T10:23:36.333Z,402.00
2023-04-08T10:24:36.317Z,402.00
2023-04-08T10:25:36.313Z,404.00
2023-04-08T10:26:36.409Z,404.00
2023-04-08T10:27:36.379Z,404.00
2023-04-08T10:28:36.401Z,405.00
2023-04-08T10:29:36.453Z,406.00
2023-04-08T10:30:36.438Z,406.00
2023-04-08T10:31:36.524Z,405.00
2023-04-08T10:32:36.574Z,404.00
2023-04-08T10:33:47.770Z,402.00
2023-04-08T10:34:37.538Z,402.00
2023-04-08T10:35:36.569Z,403.00
2023-04-08T10:36:36.524Z,403.00
2023-04-08T10:37:36.542Z,407.00
2023-04-08T10:38:36.505Z,408.00
2023-04-08T10:39:38.604Z,408.00
2023-04-08T10:40:36.497Z,404.00
2023-04-08T10:41:36.483Z,403.00
2023-04-08T10:42:36.509Z,405.00
2023-04-08T10:43:36.474Z,406.00
2023-04-08T10:44:36.489Z,406.00
2023-04-08T10:45:36.474Z,407.00
2023-04-08T10:46:36.466Z,406.00
2023-04-08T10:47:36.543Z,406.00
2023-04-08T10:48:36.550Z,405.00
2023-04-08T10:49:36.540Z,404.00
2023-04-08T10:50:36.592Z,406.00
2023-04-08T10:51:36.609Z,407.00
2023-04-08T10:52:36.616Z,404.00
2023-04-08T10:53:36.694Z,405.00
2023-04-08T10:54:36.682Z,405.00
2023-04-08T10:55:36.672Z,404.00
2023-04-08T10:56:36.732Z,403.00
2023-04-08T10:57:36.738Z,402.00
2023-04-08T10:58:36.819Z,404.00
2023-04-08T10:59:36.826Z,405.00
2023-04-08T11:00:36.834Z,406.00
2023-04-08T11:01:36.879Z,407.00
2023-04-08T11:02:36.989Z,407.00
2023-04-08T11:03:37.452Z,407.00
2023-04-08T11:04:37.071Z,409.00
2023-04-08T11:05:36.988Z,408.00
2023-04-08T11:06:37.021Z,406.00
2023-04-08T11:07:37.050Z,406.00
2023-04-08T11:08:37.068Z,406.00
2023-04-08T11:09:37.099Z,406.00
2023-04-08T11:10:37.167Z,405.00
2023-04-08T11:11:37.177Z,407.00
2023-04-08T11:12:37.230Z,409.00
2023-04-08T11:13:37.270Z,410.00
2023-04-08T11:14:37.283Z,409.00
2023-04-08T11:15:37.320Z,409.00
2023-04-08T11:16:37.325Z,408.00
2023-04-08T11:17:37.341Z,406.00
2023-04-08T11:18:37.299Z,407.00
2023-04-08T11:19:37.275Z,407.00
2023-04-08T11:20:37.283Z,407.00
2023-04-08T11:21:37.335Z,407.00
2023-04-08T11:22:37.351Z,409.00
2023-04-08T11:23:37.339Z,407.00
2023-04-08T11:24:37.309Z,409.00
2023-04-08T11:25:37.286Z,408.00
2023-04-08T11:26:37.317Z,406.00
2023-04-08T11:27:37.300Z,405.00
2023-04-08T11:28:37.310Z,406.00
2023-04-08T11:29:37.297Z,407.00
2023-04-08T11:30:37.312Z,407.00
2023-04-08T11:31:37.335Z,407.00
2023-04-08T11:32:37.351Z,406.00
2023-04-08T11:33:37.292Z,406.00
2023-04-08T11:34:37.331Z,406.00
2023-04-08T11:35:37.357Z,407.00
2023-04-08T11:36:37.319Z,408.00
2023-04-08T11:37:37.308Z,409.00
2023-04-08T11:38:37.292Z,408.00
2023-04-08T11:39:37.300Z,404.00
2023-04-08T11:40:37.297Z,403.00
2023-04-08T11:41:37.316Z,404.00
2023-04-08T11:42:37.292Z,404.00
2023-04-08T11:43:37.305Z,403.00
2023-04-08T11:44:37.281Z,403.00
2023-04-08T11:45:37.284Z,404.00
2023-04-08T11:46:37.338Z,404.00
2023-04-08T11:47:37.339Z,403.00
2023-04-08T11:48:37.272Z,402.00
2023-04-08T11:49:37.287Z,403.00
2023-04-08T11:50:37.304Z,401.00
2023-04-08T11:51:37.282Z,402.00
2023-04-08T11:52:37.293Z,401.00
2023-04-08T11:53:37.312Z,400.00
2023-04-08T11:54:37.315Z,402.00
2023-04-08T11:55:37.356Z,402.00
2023-04-08T11:56:37.379Z,402.00
2023-04-08T11:57:37.446Z,402.00
2023-04-08T11:58:37.417Z,403.00
2023-04-08T11:59:37.452Z,401.00
2023-04-08T12:00:37.459Z,402.00
2023-04-08T12:01:37.476Z,404.00
2023-04-08T12:02:37.517Z,404.00
2023-04-08T12:03:37.562Z,405.00
2023-04-08T12:04:37.469Z,401.00
2023-04-08T12:05:37.457Z,402.00
2023-04-08T12:06:37.469Z,402.00
2023-04-08T12:07:37.461Z,401.00
2023-04-08T12:08:37.481Z,399.00
2023-04-08T12:09:37.496Z,399.00
2023-04-08T12:10:37.500Z,401.00
2023-04-08T12:11:37.592Z,401.00
2023-04-08T12:12:37.512Z,399.00
2023-04-08T12:13:37.520Z,397.00
2023-04-08T12:14:37.511Z,398.00
2023-04-08T12:15:37.568Z,403.00
2023-04-08T12:16:37.613Z,404.00
2023-04-08T12:17:37.579Z,406.00
2023-04-08T12:18:37.566Z,406.00
2023-04-08T12:19:38.562Z,408.00
2023-04-08T12:20:37.596Z,407.00
2023-04-08T12:21:37.592Z,409.00
2023-04-08T12:22:37.576Z,406.00
2023-04-08T12:23:37.678Z,407.00
2023-04-08T12:24:37.565Z,409.00
2023-04-08T12:25:37.600Z,408.00
2023-04-08T12:26:37.608Z,407.00
2023-04-08T12:27:37.637Z,406.00
2023-04-08T12:28:37.652Z,405.00
2023-04-08T12:29:37.702Z,405.00
2023-04-08T12:30:37.726Z,405.00